Aviation Digital Data Service (ADDS)

Output produced by METARs form (1711 UTC 29 May 2017)
found at http://www.aviationweather.gov/adds/metars/
 
TAF COR MKJP 291115Z 2912/3012 34006KT 9999 FEW022 SCT032 
     BECMG 2914/2916 14020KT SCT018 FEW020CB 
     BECMG 3000/3002 32005KT FEW022
       
MKJS 291115Z 2912/3012 VRB02KT 9999 FEW022 
     BECMG 2914/2916 06018KT 
     PROB40 
     TEMPO 2919/2923 7000 SHRA BKN018 FEW020CB 
     BECMG 3000/3002 11005KT FEW020